Peddler Hill, California
Current Conditions -  °F | °C
As of 7:35 PM on Saturday 24 Jan 2015 (Local Time) from KPVF Reporting Station
Clear Clear  
Wind Chill: 66°   Ceiling: Unl
Heat Index: 66°   Visibility: 10mi
Dew Point: 23°   Wind: 7mph
Humidity: 19%   Direction: 70°ENE
Pressure: 30.17"   Gusts: NA
Location:  38.5644°N, 120.32°W
Report Text: KPVF 250335Z AUTO 07006KT 10SM CLR 19/M05 A3017 RMK AO1
Loading
Personal Weather Stations






























Interactive Weather Map New forecast layout! Learn more

10-Day Weather Forecast

Advertisements
Track Severe Weather on mobile